createdAt,value
2022-08-22T00:00:55.085Z,71.5
2022-08-22T00:16:11.053Z,71.5
2022-08-22T00:31:28.061Z,73
2022-08-22T00:46:44.000Z,74.5
2022-08-22T01:01:59.994Z,74.5
2022-08-22T01:17:16.931Z,73.5
2022-08-22T01:32:34.940Z,75.5
2022-08-22T01:47:50.878Z,78
2022-08-22T02:03:06.848Z,81
2022-08-22T02:18:22.812Z,81.5
2022-08-22T02:33:39.779Z,83.5
2022-08-22T02:48:55.756Z,85
2022-08-22T03:04:12.727Z,88.5
2022-08-22T03:19:29.697Z,84
2022-08-22T03:34:46.666Z,78.5
2022-08-22T03:50:02.635Z,78.5
2022-08-22T04:05:18.613Z,85
2022-08-22T04:20:34.576Z,87.5
2022-08-22T04:35:51.553Z,89.5
2022-08-22T04:51:07.558Z,90.5
2022-08-22T05:06:24.488Z,88
2022-08-22T05:21:41.499Z,84.5
2022-08-22T05:36:58.444Z,81
2022-08-22T05:52:14.450Z,76
2022-08-22T06:07:30.376Z,71
2022-08-22T06:22:43.343Z,67.5
2022-08-22T06:37:59.593Z,66
2022-08-22T06:53:16.311Z,62
2022-08-22T07:08:37.146Z,60.5
2022-08-22T07:23:50.212Z,58
2022-08-22T07:39:06.212Z,58
2022-08-22T07:54:22.178Z,55
2022-08-22T08:09:38.144Z,54.5
2022-08-22T08:24:55.094Z,53
2022-08-22T08:40:11.179Z,49.5
2022-08-22T08:55:28.054Z,47
2022-08-22T09:10:45.014Z,45
2022-08-22T09:26:01.956Z,44
2022-08-22T09:41:17.951Z,43.5
2022-08-22T09:56:33.884Z,44.5
2022-08-22T10:11:49.882Z,43.5
2022-08-22T10:27:06.819Z,43
2022-08-22T10:42:23.824Z,41.5
2022-08-22T10:57:40.752Z,41.5
2022-08-22T11:12:56.827Z,40.5
2022-08-22T11:28:13.684Z,39.5
2022-08-22T11:43:32.525Z,37.5
2022-08-22T11:58:45.626Z,36.5
2022-08-22T12:14:04.188Z,38
2022-08-22T12:29:18.584Z,35.5
2022-08-22T12:44:35.557Z,36.5
2022-08-22T12:59:52.493Z,35.5
2022-08-22T13:15:10.785Z,36
2022-08-22T13:30:25.465Z,34
2022-08-22T13:45:41.450Z,34
2022-08-22T14:00:57.728Z,34
2022-08-22T14:16:13.328Z,32
2022-08-22T14:31:30.339Z,32.5
2022-08-22T14:46:47.272Z,32
2022-08-22T15:02:04.399Z,32
2022-08-22T15:17:20.206Z,30.5
2022-08-22T15:32:37.199Z,32.5
2022-08-22T15:47:53.147Z,33.5
2022-08-22T16:03:09.115Z,33.5
2022-08-22T16:18:25.079Z,34
2022-08-22T16:33:43.049Z,35.5
2022-08-22T16:49:00.018Z,35.5
2022-08-22T17:04:16.982Z,36.5
2022-08-22T17:19:32.955Z,38
2022-08-22T17:34:49.919Z,39
2022-08-22T17:50:05.901Z,39.5
2022-08-22T18:05:21.859Z,40
2022-08-22T18:20:38.829Z,39.5
2022-08-22T18:35:56.808Z,39.5
2022-08-22T18:51:13.806Z,39.5
2022-08-22T19:06:29.738Z,39.5
2022-08-22T19:21:45.739Z,38.5
2022-08-22T19:37:02.672Z,38.5
2022-08-22T19:52:18.667Z,39
2022-08-22T20:07:34.608Z,39.5
2022-08-22T20:22:52.860Z,40
2022-08-22T20:38:09.629Z,41
2022-08-22T20:53:26.558Z,41.5
2022-08-22T21:08:42.509Z,42.5
2022-08-22T21:24:00.762Z,44.5
2022-08-22T21:39:15.457Z,48.5
2022-08-22T21:54:31.414Z,48
2022-08-22T22:09:52.959Z,48
2022-08-22T22:25:05.358Z,49
2022-08-22T22:40:23.393Z,50.5
2022-08-22T22:55:41.588Z,53
2022-08-22T23:10:55.266Z,57
2022-08-22T23:26:11.200Z,59.5
2022-08-22T23:41:28.205Z,61.5
2022-08-22T23:56:44.137Z,63.5
